createdAt,value
2019-05-15T00:04:49.231Z,20.9
2019-05-15T00:14:48.506Z,20.9
2019-05-15T00:24:48.798Z,20.9
2019-05-15T00:34:48.656Z,20.9
2019-05-15T00:44:45.778Z,20.9
2019-05-15T00:54:44.997Z,20.8
2019-05-15T01:04:44.197Z,20.8
2019-05-15T01:14:43.410Z,20.8
2019-05-15T01:24:42.621Z,20.8
2019-05-15T01:34:41.891Z,20.8
2019-05-15T01:44:41.047Z,20.8
2019-05-15T01:54:40.257Z,20.8
2019-05-15T02:04:39.494Z,20.8
2019-05-15T02:14:39.146Z,20.8
2019-05-15T02:24:38.984Z,20.8
2019-05-15T02:34:39.443Z,20.8
2019-05-15T02:44:39.629Z,20.8
2019-05-15T02:54:35.531Z,20.8
2019-05-15T03:04:34.746Z,20.8
2019-05-15T03:14:33.954Z,20.8
2019-05-15T03:24:33.171Z,20.8
2019-05-15T03:34:37.840Z,20.8
2019-05-15T03:44:31.600Z,20.8
2019-05-15T03:54:30.804Z,20.8
2019-05-15T04:04:30.015Z,20.8
2019-05-15T04:14:29.658Z,20.5
2019-05-15T04:24:30.067Z,20.4
2019-05-15T04:34:28.949Z,20.3
2019-05-15T04:44:28.883Z,20.3
2019-05-15T04:54:28.703Z,20.4
2019-05-15T05:04:25.302Z,20.4
2019-05-15T05:14:24.511Z,20.4
2019-05-15T05:24:23.716Z,20.4
2019-05-15T05:34:22.928Z,20.4
2019-05-15T05:44:22.141Z,20.4
2019-05-15T05:54:21.351Z,20.5
2019-05-15T06:04:20.614Z,20.5
2019-05-15T06:14:19.826Z,20.5
2019-05-15T06:24:18.989Z,20.5
2019-05-15T06:34:18.202Z,20.6
2019-05-15T06:44:18.720Z,20.6
2019-05-15T06:54:18.728Z,20.6
2019-05-15T07:04:18.013Z,20.7
2019-05-15T07:14:15.043Z,20.7
2019-05-15T07:24:14.257Z,20.8
2019-05-15T07:34:13.459Z,20.8
2019-05-15T07:44:12.680Z,20.8
2019-05-15T07:54:11.886Z,20.9
2019-05-15T08:04:23.054Z,20.9
2019-05-15T08:14:10.301Z,21.1
2019-05-15T08:24:09.518Z,21.1
2019-05-15T08:34:15.426Z,21.1
2019-05-15T08:44:08.700Z,21.1
2019-05-15T08:54:08.474Z,21.1
2019-05-15T09:04:08.716Z,21.1
2019-05-15T09:14:08.000Z,21.1
2019-05-15T09:24:04.810Z,21.1
2019-05-15T09:34:03.997Z,21.1
2019-05-15T09:44:03.198Z,21.1
2019-05-15T09:54:02.415Z,21.1
2019-05-15T10:04:01.646Z,21.2
2019-05-15T10:14:00.831Z,21.3
2019-05-15T10:24:00.052Z,21.3
2019-05-15T10:33:59.260Z,21.4
2019-05-15T10:44:00.288Z,21.4
2019-05-15T10:53:57.683Z,21.4
2019-05-15T11:03:58.805Z,21.4
2019-05-15T11:14:00.042Z,21.4
2019-05-15T11:23:55.317Z,21.3
2019-05-15T11:33:54.573Z,21.4
2019-05-15T11:43:53.727Z,21.4
2019-05-15T11:53:52.937Z,21.4
2019-05-15T12:03:52.148Z,21.4
2019-05-15T12:13:51.367Z,21.3
2019-05-15T12:23:50.568Z,21.3
2019-05-15T12:33:49.861Z,21.3
2019-05-15T13:03:35.009Z,21.3
2019-05-15T13:13:34.210Z,21
2019-05-15T13:23:33.419Z,21
2019-05-15T13:33:32.628Z,21
2019-05-15T13:43:31.900Z,20.9
2019-05-15T13:53:31.106Z,20.9
2019-05-15T14:03:30.259Z,20.9
2019-05-15T14:13:29.616Z,20.8
2019-05-15T14:23:29.394Z,20.8
2019-05-15T14:33:29.145Z,20.8
2019-05-15T21:15:01.669Z,20.7
2019-05-15T21:25:00.883Z,20.6
2019-05-15T21:35:00.093Z,20.6
2019-05-15T21:44:59.301Z,20.6
2019-05-15T21:55:01.551Z,20.6
2019-05-15T22:04:59.638Z,20.6
2019-05-15T22:14:58.079Z,20.6
2019-05-15T22:24:56.314Z,20.5
2019-05-15T22:35:06.883Z,20.6
2019-05-15T22:44:56.320Z,20.5
2019-05-15T22:54:55.532Z,20.5
2019-05-15T23:04:54.737Z,20.5
2019-05-15T23:14:53.953Z,20.4
2019-05-15T23:24:53.167Z,20.4
2019-05-15T23:34:52.374Z,20.4
2019-05-15T23:44:51.579Z,20.4
2019-05-15T23:54:50.840Z,20.4
